Time;durP1;ratioP1;P1;durP2;ratioP2;P2;SDS_P1;SDS_P2;PMS_P1;PMS_P2;Temp;Humidity;BMP_temperature;BMP_pressure;BME280_temperature;BME280_humidity;BME280_pressure;Samples;Min_cycle;Max_cycle;Signal;HPM_P1;HPM_P2
2021/09/21 00:02:05;;;;;;;10.27;7.50;;;7.50;99.90;;;;;;5033239;28;20678;-68
2021/09/21 00:04:32;;;;;;;11.60;7.40;;;7.50;99.90;;;;;;5032586;28;20222;-66
2021/09/21 00:06:59;;;;;;;10.70;6.83;;;7.50;99.90;;;;;;5032630;28;20207;-67
2021/09/21 00:09:25;;;;;;;9.70;6.80;;;7.40;99.90;;;;;;5032645;28;20218;-66
2021/09/21 00:11:52;;;;;;;9.80;7.10;;;7.40;99.90;;;;;;5032790;28;20575;-67
2021/09/21 00:14:20;;;;;;;9.73;6.57;;;7.40;99.90;;;;;;5032472;28;20215;-67
2021/09/21 00:16:47;;;;;;;9.17;6.40;;;7.40;99.90;;;;;;5032940;28;20206;-66
2021/09/21 00:19:15;;;;;;;11.07;7.27;;;7.40;99.90;;;;;;5032721;28;20542;-67
2021/09/21 00:21:42;;;;;;;11.60;7.50;;;7.40;99.90;;;;;;5033084;28;20225;-66
2021/09/21 00:24:09;;;;;;;11.90;7.33;;;7.40;99.90;;;;;;5032519;28;20238;-66
2021/09/21 00:26:36;;;;;;;10.57;6.83;;;7.40;99.90;;;;;;5032196;28;20242;-66
2021/09/21 00:29:03;;;;;;;10.40;7.20;;;7.40;99.90;;;;;;5030775;28;20217;-67
2021/09/21 00:31:37;;;;;;;9.77;6.90;;;7.40;99.90;;;;;;5032452;28;20222;-67
2021/09/21 00:34:07;;;;;;;13.67;7.20;;;7.30;99.90;;;;;;5032410;28;20667;-67
2021/09/21 00:36:37;;;;;;;9.47;6.90;;;7.40;99.90;;;;;;5032195;28;20722;-66
2021/09/21 00:39:06;;;;;;;12.50;7.10;;;7.40;99.90;;;;;;5031269;28;20233;-66
2021/09/21 00:41:35;;;;;;;9.77;6.90;;;7.40;99.90;;;;;;5031977;28;20214;-66
2021/09/21 00:44:02;;;;;;;11.77;7.80;;;7.40;99.90;;;;;;5032352;28;20702;-66
2021/09/21 00:46:28;;;;;;;10.20;7.53;;;7.40;99.90;;;;;;5031818;28;20226;-65
2021/09/21 00:48:55;;;;;;;10.27;7.10;;;7.30;99.90;;;;;;5019119;28;20218;-66
2021/09/21 00:51:24;;;;;;;9.90;7.13;;;7.40;99.90;;;;;;5031963;28;20202;-65
2021/09/21 00:53:52;;;;;;;9.17;7.27;;;7.40;99.90;;;;;;5032122;28;20249;-66
2021/09/21 00:56:19;;;;;;;11.60;7.27;;;7.40;99.90;;;;;;5031638;28;20253;-65
2021/09/21 00:58:46;;;;;;;11.27;7.63;;;7.30;99.90;;;;;;5031019;28;20221;-66
2021/09/21 01:01:13;;;;;;;11.50;7.50;;;7.40;99.90;;;;;;5018306;28;20304;-65
2021/09/21 01:03:40;;;;;;;11.03;7.90;;;7.40;99.90;;;;;;5031895;28;20233;-65
2021/09/21 01:06:07;;;;;;;11.67;7.77;;;7.30;99.90;;;;;;5031729;28;20246;-66
2021/09/21 01:08:34;;;;;;;12.67;7.67;;;7.30;99.90;;;;;;5031483;28;20678;-65
2021/09/21 01:11:02;;;;;;;11.57;7.23;;;7.30;99.90;;;;;;5028562;28;20203;-65
2021/09/21 01:13:28;;;;;;;12.07;7.40;;;7.30;99.90;;;;;;5031710;28;20210;-66
2021/09/21 01:15:55;;;;;;;11.57;7.60;;;7.30;99.90;;;;;;5018289;28;20695;-66
2021/09/21 01:18:22;;;;;;;10.23;6.93;;;7.30;99.90;;;;;;5024834;28;20206;-66
2021/09/21 01:20:49;;;;;;;13.33;8.30;;;7.20;99.90;;;;;;5025206;28;20221;-66
2021/09/21 01:23:17;;;;;;;11.40;8.10;;;7.20;99.90;;;;;;5028207;28;20214;-66
2021/09/21 01:25:44;;;;;;;14.47;7.53;;;7.30;99.90;;;;;;5031868;28;20746;-65
2021/09/21 01:28:13;;;;;;;11.73;7.80;;;7.30;99.90;;;;;;5031232;28;20209;-65
2021/09/21 01:30:40;;;;;;;12.77;8.10;;;7.20;99.90;;;;;;5031193;28;20233;-64
2021/09/21 01:33:07;;;;;;;12.13;7.07;;;7.30;99.90;;;;;;5030791;28;20203;-65
2021/09/21 01:35:33;;;;;;;13.33;7.60;;;7.30;99.90;;;;;;5031142;28;20216;-65
2021/09/21 01:38:00;;;;;;;9.57;6.90;;;7.20;99.90;;;;;;5030840;28;20219;-65
2021/09/21 01:40:28;;;;;;;12.10;6.83;;;7.20;99.90;;;;;;5030966;28;20221;-66
2021/09/21 01:42:55;;;;;;;10.93;7.63;;;7.20;99.90;;;;;;5031305;28;20293;-65
2021/09/21 01:45:22;;;;;;;14.07;7.30;;;7.20;99.90;;;;;;5031488;28;20630;-65
2021/09/21 01:47:49;;;;;;;10.60;7.07;;;7.20;99.90;;;;;;5032283;28;20681;-66
2021/09/21 01:53:14;;;;;;;13.57;8.03;;;7.20;99.90;;;;;;5004592;28;20210;-65
2021/09/21 01:58:47;;;;;;;11.77;7.50;;;7.20;99.90;;;;;;5022572;28;20210;-65
2021/09/21 02:01:15;;;;;;;10.60;7.30;;;7.20;99.90;;;;;;5018361;28;20202;-65
2021/09/21 02:03:43;;;;;;;12.07;7.90;;;7.20;99.90;;;;;;5031783;28;20210;-65
2021/09/21 02:06:10;;;;;;;11.53;7.30;;;7.20;99.90;;;;;;5030822;28;20233;-65
2021/09/21 02:08:37;;;;;;;10.27;7.67;;;7.20;99.90;;;;;;5030879;28;20662;-65
2021/09/21 02:11:05;;;;;;;10.80;7.50;;;7.20;99.90;;;;;;5030844;28;20211;-65
2021/09/21 02:13:32;;;;;;;11.80;7.40;;;7.20;99.90;;;;;;5030424;28;20225;-65
2021/09/21 02:15:59;;;;;;;10.27;6.70;;;7.20;99.90;;;;;;5031175;28;20222;-65
2021/09/21 02:18:26;;;;;;;13.60;7.40;;;7.30;99.90;;;;;;5031066;28;20214;-65
2021/09/21 02:20:53;;;;;;;11.50;7.67;;;7.20;99.90;;;;;;5031387;28;20218;-65
2021/09/21 02:23:20;;;;;;;10.90;7.30;;;7.30;99.90;;;;;;5030913;28;20222;-65
2021/09/21 02:25:47;;;;;;;13.80;8.43;;;7.20;99.90;;;;;;5030652;28;20242;-66
2021/09/21 02:28:15;;;;;;;11.80;6.80;;;7.20;99.90;;;;;;5030742;28;20207;-66
2021/09/21 02:30:42;;;;;;;12.53;7.60;;;7.20;99.90;;;;;;5030981;28;20206;-65
2021/09/21 02:33:09;;;;;;;8.80;6.80;;;7.20;99.90;;;;;;5030422;28;20574;-66
2021/09/21 02:35:36;;;;;;;11.53;8.03;;;7.20;99.90;;;;;;5031446;28;20663;-65
2021/09/21 02:38:03;;;;;;;12.83;7.53;;;7.20;99.90;;;;;;5030073;28;20220;-65
2021/09/21 02:40:30;;;;;;;15.57;7.37;;;7.10;99.90;;;;;;5030218;28;20552;-66
2021/09/21 02:42:57;;;;;;;10.37;7.33;;;7.10;99.90;;;;;;5030539;28;20210;-64
2021/09/21 02:45:25;;;;;;;11.00;7.87;;;7.10;99.90;;;;;;5031330;28;20715;-64
2021/09/21 02:47:52;;;;;;;9.77;7.03;;;7.10;99.90;;;;;;5030162;28;20217;-65
2021/09/21 02:50:19;;;;;;;11.50;7.40;;;7.00;99.90;;;;;;5016631;28;20207;-64
2021/09/21 02:52:45;;;;;;;14.07;7.80;;;7.00;99.90;;;;;;5017403;28;20215;-65
2021/09/21 02:55:12;;;;;;;11.07;7.50;;;7.00;99.90;;;;;;5030604;28;20679;-65
2021/09/21 02:57:39;;;;;;;11.13;7.73;;;6.90;99.90;;;;;;5030057;28;20304;-65
2021/09/21 03:00:08;;;;;;;11.13;7.10;;;6.90;99.90;;;;;;5030455;28;20206;-65
2021/09/21 03:02:36;;;;;;;9.70;7.17;;;6.90;99.90;;;;;;5031327;28;20207;-65
2021/09/21 03:05:06;;;;;;;11.90;7.60;;;6.90;99.90;;;;;;5034294;28;20238;-66
2021/09/21 03:07:37;;;;;;;11.73;7.97;;;6.90;99.90;;;;;;5034171;28;20223;-65
2021/09/21 03:10:11;;;;;;;11.43;7.47;;;6.90;99.90;;;;;;5033621;28;20551;-66
2021/09/21 03:12:59;;;;;;;10.47;7.23;;;6.90;99.90;;;;;;5033800;28;20574;-65
2021/09/21 03:18:11;;;;;;;11.87;7.43;;;7.00;99.90;;;;;;5033676;28;20333;-65
2021/09/21 03:20:38;;;;;;;8.63;6.90;;;6.90;99.90;;;;;;5034049;28;20206;-65
2021/09/21 03:23:05;;;;;;;11.50;7.37;;;6.90;99.90;;;;;;5033943;28;20571;-66
2021/09/21 03:25:32;;;;;;;10.63;7.37;;;6.90;99.90;;;;;;5030973;28;20250;-66
2021/09/21 03:27:59;;;;;;;11.03;7.67;;;6.90;99.90;;;;;;5033260;28;20689;-65
2021/09/21 03:30:26;;;;;;;11.13;7.37;;;6.90;99.90;;;;;;5031845;28;20623;-65
2021/09/21 03:32:53;;;;;;;11.87;7.50;;;6.90;99.90;;;;;;5032737;28;20207;-64
2021/09/21 03:35:21;;;;;;;10.87;7.43;;;6.90;99.90;;;;;;5033447;28;20674;-65
2021/09/21 03:37:48;;;;;;;10.33;7.10;;;6.90;99.90;;;;;;5033982;28;20214;-66
2021/09/21 03:40:15;;;;;;;11.63;7.83;;;6.80;99.90;;;;;;5033003;28;20261;-65
2021/09/21 03:42:42;;;;;;;11.07;7.47;;;6.90;99.90;;;;;;5030315;28;20210;-66
2021/09/21 03:45:10;;;;;;;12.37;7.30;;;6.80;99.90;;;;;;5033660;28;20206;-66
2021/09/21 03:47:36;;;;;;;10.73;7.77;;;6.80;99.90;;;;;;5033186;28;20218;-65
2021/09/21 03:50:04;;;;;;;9.43;6.33;;;6.90;99.90;;;;;;5032972;28;20583;-65
2021/09/21 03:52:32;;;;;;;10.83;6.80;;;6.80;99.90;;;;;;5033286;28;20206;-65
2021/09/21 03:54:59;;;;;;;14.10;7.77;;;6.70;99.90;;;;;;5033316;28;20544;-66
2021/09/21 03:57:25;;;;;;;9.73;7.00;;;6.80;99.90;;;;;;5033495;28;20217;-65
2021/09/21 03:59:52;;;;;;;9.90;7.33;;;6.80;99.90;;;;;;5024365;28;20592;-65
2021/09/21 04:02:19;;;;;;;9.67;7.40;;;6.70;99.90;;;;;;5032111;28;20207;-65
2021/09/21 04:04:46;;;;;;;11.10;7.67;;;6.70;99.90;;;;;;5033441;28;20207;-66
2021/09/21 04:07:12;;;;;;;10.80;7.70;;;6.70;99.90;;;;;;5032702;28;20233;-66
2021/09/21 04:09:40;;;;;;;9.67;7.27;;;6.70;99.90;;;;;;5032878;28;20222;-66
2021/09/21 04:12:07;;;;;;;13.03;7.77;;;6.70;99.90;;;;;;5032243;28;20699;-66
2021/09/21 04:14:34;;;;;;;10.03;7.40;;;6.70;99.90;;;;;;5032527;28;20206;-65
2021/09/21 04:17:01;;;;;;;11.33;7.20;;;6.70;99.90;;;;;;5032856;28;20210;-66
2021/09/21 04:19:28;;;;;;;10.07;7.23;;;6.70;99.90;;;;;;5030732;28;20210;-65
2021/09/21 04:21:55;;;;;;;12.10;7.47;;;6.70;99.90;;;;;;5025992;28;20211;-66
2021/09/21 04:24:22;;;;;;;10.73;7.07;;;6.70;99.90;;;;;;5032466;28;20206;-66
2021/09/21 04:26:50;;;;;;;10.57;7.33;;;6.70;99.90;;;;;;5032396;28;20246;-65
2021/09/21 04:29:16;;;;;;;9.93;7.03;;;6.70;99.90;;;;;;5032061;28;20211;-65
2021/09/21 04:31:45;;;;;;;9.70;6.97;;;6.70;99.90;;;;;;5033062;28;20214;-65
2021/09/21 04:34:13;;;;;;;10.63;7.80;;;6.70;99.90;;;;;;5021133;28;20214;-65
2021/09/21 04:36:40;;;;;;;10.10;7.10;;;6.70;99.90;;;;;;5030242;28;20222;-65
2021/09/21 04:39:07;;;;;;;11.43;7.63;;;6.70;99.90;;;;;;5031617;28;20210;-66
2021/09/21 04:41:34;;;;;;;11.83;7.87;;;6.70;99.90;;;;;;5031679;28;20670;-65
2021/09/21 04:44:02;;;;;;;10.97;7.50;;;6.70;99.90;;;;;;5032261;28;20242;-66
2021/09/21 04:46:30;;;;;;;11.07;7.77;;;6.70;99.90;;;;;;5031845;28;20230;-66
2021/09/21 04:48:57;;;;;;;12.57;7.50;;;6.70;99.90;;;;;;5031612;28;20233;-66
2021/09/21 04:51:23;;;;;;;10.47;7.43;;;6.70;99.90;;;;;;5031999;28;20211;-65
2021/09/21 04:53:50;;;;;;;10.30;7.20;;;6.80;99.90;;;;;;5031302;28;20540;-65
2021/09/21 04:56:17;;;;;;;10.57;7.10;;;6.90;99.90;;;;;;5031486;28;20209;-65
2021/09/21 04:58:44;;;;;;;13.87;7.37;;;6.90;99.90;;;;;;5031849;28;20210;-66
2021/09/21 05:01:12;;;;;;;12.30;7.40;;;6.90;99.90;;;;;;5036886;28;20293;-66
2021/09/21 05:03:38;;;;;;;10.03;7.07;;;6.90;99.90;;;;;;5032667;28;20544;-66
2021/09/21 05:06:05;;;;;;;13.63;7.63;;;6.90;99.90;;;;;;5026874;28;20226;-65
2021/09/21 05:08:32;;;;;;;11.20;7.67;;;7.00;99.90;;;;;;5031533;28;20218;-65
2021/09/21 05:10:59;;;;;;;13.47;7.77;;;7.00;99.90;;;;;;5030089;28;20211;-65
2021/09/21 05:13:26;;;;;;;10.47;7.30;;;7.10;99.90;;;;;;5031813;28;20209;-66
2021/09/21 05:15:52;;;;;;;10.60;7.00;;;7.10;99.90;;;;;;5030976;28;20254;-65
2021/09/21 05:18:20;;;;;;;9.23;6.83;;;7.30;99.90;;;;;;5031513;28;20217;-66
2021/09/21 05:20:48;;;;;;;9.60;6.70;;;7.30;99.90;;;;;;5036338;28;20210;-64
2021/09/21 05:23:14;;;;;;;10.03;7.50;;;7.20;99.90;;;;;;5031434;28;20234;-65
2021/09/21 05:25:41;;;;;;;10.43;7.10;;;7.30;99.90;;;;;;5021720;28;20245;-65
2021/09/21 05:28:08;;;;;;;9.83;7.03;;;7.30;99.90;;;;;;5030865;28;20234;-64
2021/09/21 05:30:35;;;;;;;11.40;6.70;;;7.40;99.90;;;;;;5025347;28;20454;-66
2021/09/21 05:33:02;;;;;;;13.33;7.37;;;7.40;99.90;;;;;;5032610;28;20198;-65
2021/09/21 05:35:30;;;;;;;9.83;7.20;;;7.40;99.90;;;;;;5036637;28;20206;-66
2021/09/21 05:37:57;;;;;;;13.07;7.97;;;7.50;99.90;;;;;;5046983;28;20552;-65
2021/09/21 05:40:26;;;;;;;10.20;6.97;;;7.50;99.90;;;;;;5034425;28;20207;-65
2021/09/21 05:42:53;;;;;;;9.93;6.90;;;7.60;99.90;;;;;;5031606;28;20210;-66
2021/09/21 05:45:20;;;;;;;14.23;8.27;;;7.70;99.90;;;;;;5031520;28;20289;-64
2021/09/21 05:47:48;;;;;;;12.33;7.67;;;7.70;99.90;;;;;;5029990;28;20341;-65
2021/09/21 05:50:16;;;;;;;12.23;7.77;;;7.80;99.90;;;;;;5033361;28;20206;-64
2021/09/21 05:52:45;;;;;;;10.83;7.13;;;7.80;99.90;;;;;;5030809;28;20233;-66
2021/09/21 05:55:12;;;;;;;10.63;7.10;;;7.90;99.90;;;;;;5030818;28;20229;-66
2021/09/21 05:57:40;;;;;;;10.77;7.20;;;7.90;99.90;;;;;;5030857;28;20199;-66
2021/09/21 06:00:08;;;;;;;10.67;6.73;;;8.10;99.90;;;;;;5030295;28;20246;-64
2021/09/21 06:02:34;;;;;;;8.90;6.80;;;8.20;99.90;;;;;;5030595;28;20199;-65
2021/09/21 06:05:01;;;;;;;9.70;6.53;;;8.30;99.90;;;;;;5033108;28;20212;-66
2021/09/21 06:07:28;;;;;;;9.00;6.80;;;8.40;99.90;;;;;;5033210;28;20226;-66
2021/09/21 06:09:56;;;;;;;11.73;7.43;;;8.50;99.90;;;;;;5030679;28;20210;-66
2021/09/21 06:12:23;;;;;;;10.00;7.50;;;8.60;99.90;;;;;;5031593;28;20215;-66
2021/09/21 06:14:50;;;;;;;14.27;7.13;;;8.70;99.90;;;;;;5033139;28;20210;-65
2021/09/21 06:17:17;;;;;;;14.03;6.50;;;8.70;99.90;;;;;;5031441;28;20585;-66
2021/09/21 06:19:43;;;;;;;11.17;6.77;;;8.80;99.90;;;;;;5030529;28;20199;-66
2021/09/21 06:22:10;;;;;;;10.37;6.67;;;8.90;99.90;;;;;;5031058;28;20206;-65
2021/09/21 06:24:37;;;;;;;10.50;6.77;;;8.90;99.90;;;;;;5031115;28;20206;-66
2021/09/21 06:27:05;;;;;;;7.87;6.60;;;9.00;99.90;;;;;;5031044;28;20703;-66
2021/09/21 06:29:32;;;;;;;10.00;7.67;;;9.10;99.90;;;;;;5031427;28;20210;-66
2021/09/21 06:31:59;;;;;;;11.00;7.23;;;9.10;99.90;;;;;;5030353;28;20218;-66
2021/09/21 06:34:25;;;;;;;10.27;6.40;;;9.10;99.90;;;;;;5024349;28;20603;-66
2021/09/21 06:36:53;;;;;;;10.47;7.47;;;9.10;99.90;;;;;;5030414;28;20218;-66
2021/09/21 06:39:21;;;;;;;8.53;6.43;;;9.20;99.90;;;;;;5029033;28;20297;-66
2021/09/21 06:41:48;;;;;;;9.87;6.03;;;9.30;99.90;;;;;;5033974;28;20230;-66
2021/09/21 06:44:16;;;;;;;9.40;6.57;;;9.40;99.90;;;;;;5034041;28;20209;-66
2021/09/21 06:46:42;;;;;;;11.60;6.33;;;9.50;99.90;;;;;;5041287;28;20272;-67
2021/09/21 06:49:09;;;;;;;10.17;6.00;;;9.60;99.90;;;;;;5034368;28;20214;-66
2021/09/21 06:51:36;;;;;;;10.93;6.93;;;9.70;99.90;;;;;;5035224;28;20229;-66
2021/09/21 06:54:03;;;;;;;8.77;5.80;;;9.70;99.90;;;;;;5034502;28;20210;-66
2021/09/21 06:56:30;;;;;;;9.00;5.80;;;9.80;99.90;;;;;;5033224;28;20209;-66
2021/09/21 06:58:57;;;;;;;9.20;5.83;;;9.90;99.90;;;;;;5033999;28;20683;-65
2021/09/21 07:01:28;;;;;;;8.70;5.97;;;10.10;99.90;;;;;;5033729;28;20828;-64
2021/09/21 07:03:55;;;;;;;7.70;5.50;;;10.20;99.90;;;;;;5033765;28;20210;-65
2021/09/21 07:06:22;;;;;;;6.90;5.17;;;10.30;99.90;;;;;;5033299;28;20256;-67
2021/09/21 07:08:48;;;;;;;7.67;5.27;;;10.40;99.90;;;;;;5033690;28;20207;-64
2021/09/21 07:11:15;;;;;;;8.57;5.33;;;10.50;99.90;;;;;;5033478;28;20566;-64
2021/09/21 07:13:42;;;;;;;9.17;5.43;;;10.70;99.90;;;;;;5033378;28;20293;-64
2021/09/21 07:16:09;;;;;;;6.67;5.00;;;10.80;99.90;;;;;;5031712;28;20246;-65
2021/09/21 07:18:37;;;;;;;6.97;5.17;;;10.90;99.90;;;;;;5033415;28;20206;-66
2021/09/21 07:21:05;;;;;;;6.73;4.77;;;11.00;99.90;;;;;;5020265;28;20587;-64
2021/09/21 07:23:32;;;;;;;6.00;4.53;;;11.20;99.90;;;;;;5033312;28;20227;-66
2021/09/21 07:25:59;;;;;;;10.43;6.20;;;11.40;99.90;;;;;;5031597;28;20242;-65
2021/09/21 07:28:26;;;;;;;7.53;5.10;;;11.50;99.90;;;;;;5029222;28;20210;-67
2021/09/21 07:30:53;;;;;;;5.20;4.17;;;11.60;99.90;;;;;;5034382;28;20690;-67
2021/09/21 07:33:20;;;;;;;10.67;4.63;;;11.70;99.90;;;;;;5035140;28;20659;-67
2021/09/21 07:35:48;;;;;;;6.90;4.53;;;11.80;99.90;;;;;;5033778;28;20230;-65
2021/09/21 07:38:15;;;;;;;7.43;4.50;;;11.90;99.90;;;;;;5029659;28;20215;-67
2021/09/21 07:40:42;;;;;;;7.53;4.53;;;12.10;99.90;;;;;;5034410;28;20293;-67
2021/09/21 07:43:09;;;;;;;5.27;3.90;;;12.20;99.90;;;;;;5034891;28;20245;-66
2021/09/21 07:45:37;;;;;;;4.10;3.30;;;12.30;99.90;;;;;;5033838;28;20210;-67
2021/09/21 07:48:04;;;;;;;4.43;3.63;;;12.40;99.90;;;;;;5033200;28;20226;-65
2021/09/21 07:50:32;;;;;;;6.40;4.27;;;12.40;99.90;;;;;;5034248;28;20368;-66
2021/09/21 07:53:00;;;;;;;7.17;4.60;;;12.50;99.90;;;;;;5033108;28;20595;-66
2021/09/21 07:55:27;;;;;;;4.27;3.27;;;12.50;99.90;;;;;;5033021;28;20679;-65
2021/09/21 07:57:54;;;;;;;4.83;3.30;;;12.50;99.90;;;;;;5032600;28;20211;-67
2021/09/21 08:00:21;;;;;;;5.10;3.37;;;12.40;99.90;;;;;;5032681;28;20210;-67
2021/09/21 08:02:48;;;;;;;6.60;3.47;;;12.30;99.90;;;;;;5032984;28;20289;-66
2021/09/21 08:05:15;;;;;;;5.03;3.50;;;12.20;99.90;;;;;;5032821;28;20210;-65
2021/09/21 08:07:42;;;;;;;4.07;3.27;;;12.20;99.90;;;;;;5032906;28;20483;-66
2021/09/21 08:10:12;;;;;;;9.27;4.13;;;12.10;99.90;;;;;;5031491;28;20206;-66
2021/09/21 08:12:39;;;;;;;4.47;3.50;;;12.10;99.90;;;;;;5031165;28;20615;-65
2021/09/21 08:15:08;;;;;;;4.07;3.37;;;12.00;99.90;;;;;;5023849;28;20215;-66
2021/09/21 08:17:35;;;;;;;3.83;3.20;;;12.00;99.90;;;;;;5031013;28;20506;-67
2021/09/21 08:20:02;;;;;;;6.03;3.70;;;12.00;99.90;;;;;;5032939;28;20210;-67
2021/09/21 08:22:28;;;;;;;4.60;3.37;;;12.00;99.90;;;;;;5038246;28;20656;-67
2021/09/21 08:24:56;;;;;;;6.23;3.37;;;12.10;99.90;;;;;;5045905;28;20213;-67
2021/09/21 08:27:24;;;;;;;4.10;3.10;;;12.10;99.90;;;;;;5047866;28;20229;-66
2021/09/21 08:29:52;;;;;;;4.60;3.10;;;12.10;99.90;;;;;;5042510;28;20219;-65
2021/09/21 08:32:19;;;;;;;3.40;3.10;;;12.10;99.90;;;;;;5042464;28;20705;-66
2021/09/21 08:34:46;;;;;;;4.40;3.67;;;12.10;99.90;;;;;;5044457;28;20221;-66
2021/09/21 08:37:12;;;;;;;4.73;3.47;;;12.10;99.90;;;;;;5042062;28;20238;-66
2021/09/21 08:39:39;;;;;;;6.23;3.40;;;12.10;99.90;;;;;;5041733;28;20210;-66
2021/09/21 08:42:06;;;;;;;4.53;3.00;;;12.30;99.90;;;;;;5044451;28;20210;-66
2021/09/21 08:44:37;;;;;;;4.40;3.33;;;12.50;99.90;;;;;;5044580;28;20214;-66
2021/09/21 08:47:05;;;;;;;4.80;2.80;;;12.70;99.90;;;;;;5036903;28;20202;-67
2021/09/21 08:49:31;;;;;;;3.13;2.47;;;12.90;99.90;;;;;;5041136;28;20641;-66
2021/09/21 08:51:59;;;;;;;3.93;2.87;;;13.20;99.90;;;;;;5041104;28;20215;-66
2021/09/21 08:54:26;;;;;;;2.53;2.30;;;13.30;99.90;;;;;;5025818;28;20261;-66
2021/09/21 08:56:54;;;;;;;3.17;2.83;;;13.50;99.90;;;;;;5030856;28;20620;-66
2021/09/21 08:59:30;;;;;;;3.43;3.00;;;13.60;99.90;;;;;;5032181;28;20222;-66
2021/09/21 09:02:04;;;;;;;3.23;2.63;;;13.80;99.90;;;;;;5030710;28;20206;-67
2021/09/21 09:04:31;;;;;;;3.47;2.60;;;14.10;99.90;;;;;;5024482;28;20672;-65
2021/09/21 09:06:59;;;;;;;2.53;2.33;;;14.40;99.90;;;;;;5024735;28;20209;-66
2021/09/21 09:09:27;;;;;;;4.37;2.03;;;14.70;99.90;;;;;;5027456;28;20790;-66
2021/09/21 09:11:56;;;;;;;3.10;2.57;;;15.30;99.90;;;;;;5028418;28;20235;-65
2021/09/21 09:14:24;;;;;;;4.57;2.30;;;16.00;99.90;;;;;;5041245;28;20214;-65
2021/09/21 09:16:53;;;;;;;3.63;2.30;;;16.80;99.90;;;;;;5036859;28;20234;-66
2021/09/21 09:19:22;;;;;;;2.40;2.20;;;17.30;99.90;;;;;;5041052;28;20206;-66
2021/09/21 09:21:49;;;;;;;3.20;2.90;;;17.40;99.90;;;;;;5040593;28;20214;-66
2021/09/21 09:24:18;;;;;;;3.27;2.53;;;17.90;99.70;;;;;;5042815;28;20201;-66
2021/09/21 09:26:45;;;;;;;2.53;2.33;;;18.40;98.70;;;;;;5044724;28;20600;-65
2021/09/21 09:29:15;;;;;;;4.37;2.40;;;18.90;98.20;;;;;;5043648;28;20226;-65
2021/09/21 09:31:46;;;;;;;3.47;2.42;;;19.40;95.40;;;;;;5039514;28;20205;-65
2021/09/21 09:34:14;;;;;;;5.15;2.53;;;20.10;94.40;;;;;;5037997;28;20210;-66
2021/09/21 09:36:48;;;;;;;3.50;1.90;;;21.20;93.70;;;;;;5040352;28;20261;-66
2021/09/21 09:39:16;;;;;;;3.50;2.00;;;22.50;89.60;;;;;;5037628;28;20195;-66
2021/09/21 09:41:45;;;;;;;3.45;2.22;;;23.20;77.00;;;;;;5036834;28;20577;-66
2021/09/21 09:44:13;;;;;;;6.97;2.30;;;23.10;72.40;;;;;;5046658;28;20217;-65
2021/09/21 09:46:45;;;;;;;2.42;1.90;;;23.10;71.70;;;;;;5043646;28;20221;-66
2021/09/21 09:49:12;;;;;;;2.88;2.03;;;22.60;68.00;;;;;;5038652;28;20693;-65
2021/09/21 09:51:51;;;;;;;5.68;3.00;;;22.00;67.90;;;;;;5036537;28;20233;-65
2021/09/21 09:54:18;;;;;;;2.50;2.10;;;21.60;69.00;;;;;;5035701;28;20456;-65
2021/09/21 09:56:46;;;;;;;3.38;1.98;;;21.20;68.30;;;;;;5043760;28;20197;-66
2021/09/21 09:59:15;;;;;;;2.35;2.00;;;20.80;69.90;;;;;;5045479;28;20217;-65
2021/09/21 10:01:42;;;;;;;3.08;2.00;;;20.40;70.00;;;;;;5045231;28;20272;-65
2021/09/21 10:04:10;;;;;;;2.30;2.10;;;20.30;71.90;;;;;;5033881;28;20207;-63
2021/09/21 10:06:37;;;;;;;2.30;2.10;;;20.10;70.90;;;;;;5040531;28;20214;-67
2021/09/21 10:09:05;;;;;;;2.65;2.17;;;19.90;72.30;;;;;;5035136;28;20710;-68
2021/09/21 10:11:32;;;;;;;4.78;2.30;;;19.70;72.40;;;;;;5037005;28;20214;-67
2021/09/21 10:14:01;;;;;;;2.17;1.98;;;19.40;72.70;;;;;;5037382;28;20210;-67
2021/09/21 10:16:27;;;;;;;3.92;2.33;;;19.10;74.00;;;;;;5051875;28;20201;-67
2021/09/21 10:18:55;;;;;;;2.65;2.45;;;18.80;74.50;;;;;;5050483;28;20662;-66
2021/09/21 10:21:34;;;;;;;2.92;2.63;;;18.40;75.60;;;;;;5041041;28;20233;-67
2021/09/21 10:24:04;;;;;;;3.42;2.30;;;17.90;76.40;;;;;;5050606;28;20439;-66
2021/09/21 10:26:38;;;;;;;2.23;2.03;;;17.50;78.10;;;;;;5042146;28;20238;-67
2021/09/21 10:29:05;;;;;;;2.97;2.17;;;17.80;82.90;;;;;;5043624;28;20217;-67
2021/09/21 10:31:34;;;;;;;2.90;2.60;;;17.90;79.60;;;;;;5044858;28;20218;-68
2021/09/21 10:34:10;;;;;;;5.40;2.70;;;18.00;79.80;;;;;;5050276;28;20256;-68
2021/09/21 10:36:46;;;;;;;2.58;2.35;;;19.80;91.60;;;;;;5043691;28;20233;-67
2021/09/21 10:39:14;;;;;;;2.40;2.05;;;21.80;76.80;;;;;;5041197;28;20424;-67
2021/09/21 10:41:48;;;;;;;4.13;2.05;;;24.60;70.70;;;;;;5042995;28;20206;-68
2021/09/21 10:44:16;;;;;;;2.13;1.95;;;28.00;59.30;;;;;;5049529;28;20210;-68
2021/09/21 10:46:44;;;;;;;4.10;2.40;;;30.70;51.60;;;;;;5043739;28;20210;-66
2021/09/21 10:49:23;;;;;;;2.50;2.08;;;32.70;45.20;;;;;;5035841;28;20223;-66
2021/09/21 10:51:50;;;;;;;2.72;2.38;;;34.00;41.10;;;;;;5039760;28;20244;-67
2021/09/21 10:54:27;;;;;;;3.47;2.25;;;34.50;39.60;;;;;;5037205;28;20550;-67
2021/09/21 10:57:07;;;;;;;2.22;2.00;;;35.00;38.60;;;;;;5033055;28;20206;-67
2021/09/21 10:59:34;;;;;;;3.25;2.50;;;35.70;37.00;;;;;;5032216;28;20203;-66
2021/09/21 11:02:04;;;;;;;2.70;2.50;;;35.30;34.80;;;;;;5029176;28;20696;-66
2021/09/21 11:04:38;;;;;;;4.18;2.45;;;34.00;38.10;;;;;;5037000;28;20199;-68
2021/09/21 11:07:05;;;;;;;3.65;2.45;;;33.90;38.40;;;;;;5029954;28;20207;-68
2021/09/21 11:09:32;;;;;;;3.10;2.80;;;32.80;37.00;;;;;;5033755;28;20253;-68
2021/09/21 11:12:06;;;;;;;4.10;2.40;;;32.20;39.30;;;;;;5018872;28;20215;-67
2021/09/21 11:14:36;;;;;;;3.80;2.75;;;31.00;38.80;;;;;;5029880;28;20217;-68
2021/09/21 11:17:04;;;;;;;3.83;2.45;;;29.50;43.50;;;;;;5032892;28;20209;-68
2021/09/21 11:19:31;;;;;;;3.33;2.65;;;29.40;42.70;;;;;;5029454;28;20203;-69
2021/09/21 11:22:00;;;;;;;3.72;3.17;;;29.00;41.20;;;;;;5033844;28;20209;-67
2021/09/21 11:24:27;;;;;;;3.08;2.58;;;28.90;44.70;;;;;;5031894;28;20544;-70
2021/09/21 11:26:58;;;;;;;4.60;2.80;;;28.30;42.10;;;;;;5032850;28;20244;-66
2021/09/21 11:29:26;;;;;;;2.63;2.42;;;27.50;43.40;;;;;;5037225;28;20237;-67
2021/09/21 11:31:53;;;;;;;6.30;2.55;;;27.10;45.20;;;;;;5042024;28;20210;-69
2021/09/21 11:34:21;;;;;;;3.97;2.85;;;26.50;45.00;;;;;;5049041;28;20583;-68
2021/09/21 11:36:50;;;;;;;2.88;2.50;;;25.70;46.30;;;;;;5032280;28;20222;-68
2021/09/21 11:39:17;;;;;;;3.55;2.70;;;25.20;49.90;;;;;;5032688;28;20203;-68
2021/09/21 11:41:44;;;;;;;3.03;2.63;;;24.80;48.50;;;;;;5032229;28;20202;-68
2021/09/21 11:44:11;;;;;;;3.55;2.70;;;24.50;48.70;;;;;;5031551;28;20364;-67
2021/09/21 11:46:39;;;;;;;4.30;2.60;;;24.00;49.00;;;;;;5031545;28;20241;-69
2021/09/21 11:49:06;;;;;;;2.65;2.30;;;23.40;49.50;;;;;;5033560;28;20260;-68
2021/09/21 11:51:35;;;;;;;4.97;2.75;;;22.90;50.40;;;;;;5033161;28;20210;-67
2021/09/21 11:54:02;;;;;;;3.55;2.80;;;22.40;51.10;;;;;;5032221;28;20549;-68
2021/09/21 11:56:29;;;;;;;5.13;2.80;;;21.80;52.00;;;;;;5033041;28;20217;-67
2021/09/21 11:58:59;;;;;;;3.08;2.72;;;21.20;52.80;;;;;;5028275;28;20205;-67
2021/09/21 12:01:28;;;;;;;3.20;2.65;;;20.40;54.30;;;;;;5028453;28;20210;-66
2021/09/21 12:03:56;;;;;;;7.55;3.35;;;19.80;55.20;;;;;;5033520;28;20210;-67
2021/09/21 12:06:32;;;;;;;6.72;3.13;;;19.30;56.30;;;;;;5032191;28;20209;-67
2021/09/21 12:09:01;;;;;;;3.88;3.05;;;18.90;57.20;;;;;;5031902;28;20662;-66
2021/09/21 12:11:28;;;;;;;3.58;2.67;;;18.50;58.20;;;;;;5031395;28;20250;-67
2021/09/21 12:13:58;;;;;;;3.35;2.78;;;18.10;59.30;;;;;;5037796;28;20203;-66
2021/09/21 12:16:29;;;;;;;5.13;2.92;;;17.80;60.20;;;;;;5031564;28;20195;-68
2021/09/21 12:18:58;;;;;;;3.47;2.63;;;17.50;61.20;;;;;;5028702;28;20613;-67
2021/09/21 12:21:28;;;;;;;4.07;2.70;;;17.20;62.40;;;;;;5032819;28;20245;-68
2021/09/21 12:23:55;;;;;;;4.77;2.73;;;17.00;62.90;;;;;;5030876;28;20213;-67
2021/09/21 12:26:23;;;;;;;3.60;2.90;;;16.70;63.70;;;;;;5031549;28;20234;-67
2021/09/21 12:28:51;;;;;;;6.17;2.57;;;16.60;65.30;;;;;;5026770;28;20257;-67
2021/09/21 12:31:20;;;;;;;3.87;3.10;;;16.60;66.00;;;;;;5027681;28;20671;-67
2021/09/21 12:33:48;;;;;;;4.00;2.87;;;16.70;66.20;;;;;;5037282;28;20210;-66
2021/09/21 12:36:25;;;;;;;4.37;2.93;;;16.70;66.40;;;;;;5041922;28;20229;-66
2021/09/21 12:38:59;;;;;;;3.57;2.83;;;16.70;67.00;;;;;;5034642;28;20671;-67
2021/09/21 12:41:27;;;;;;;5.63;2.70;;;16.50;67.20;;;;;;5029106;28;20207;-68
2021/09/21 12:43:55;;;;;;;4.83;3.00;;;16.40;67.70;;;;;;5031127;28;20282;-68
2021/09/21 12:46:23;;;;;;;3.00;2.60;;;16.20;68.30;;;;;;5030671;28;20297;-67
2021/09/21 12:48:50;;;;;;;4.83;2.77;;;16.10;69.30;;;;;;5030579;28;20235;-67
2021/09/21 12:51:16;;;;;;;4.00;2.93;;;16.00;70.80;;;;;;5031666;28;20213;-66
2021/09/21 12:53:45;;;;;;;6.67;2.83;;;15.80;70.50;;;;;;5031557;28;20551;-67
2021/09/21 12:56:12;;;;;;;4.57;2.60;;;15.70;71.30;;;;;;5037298;28;20215;-67
2021/09/21 12:58:42;;;;;;;4.40;2.97;;;15.70;72.00;;;;;;5022476;28;20218;-67
2021/09/21 13:01:11;;;;;;;4.13;2.57;;;15.70;72.60;;;;;;5031652;28;20261;-67